sensor_id;sensor_type;location;lat;lon;timestamp;P1;durP1;ratioP1;P2;durP2;ratioP2
52438;SDS011;73188;52.948;6.012;2024-03-06T00:08:44;758.97;;;321.58;;
52438;SDS011;73188;52.948;6.012;2024-03-06T00:19:10;1036.53;;;361.25;;
52438;SDS011;73188;52.948;6.012;2024-03-06T00:29:36;1053.28;;;344.23;;
52438;SDS011;73188;52.948;6.012;2024-03-06T00:40:03;913.92;;;332.77;;
52438;SDS011;73188;52.948;6.012;2024-03-06T00:50:29;1128.13;;;409.75;;
52438;SDS011;73188;52.948;6.012;2024-03-06T01:00:55;1153.18;;;333.05;;
52438;SDS011;73188;52.948;6.012;2024-03-06T01:11:22;1229.45;;;340.27;;
52438;SDS011;73188;52.948;6.012;2024-03-06T01:21:48;1200.15;;;388.67;;
52438;SDS011;73188;52.948;6.012;2024-03-06T01:32:14;576.88;;;320.63;;
52438;SDS011;73188;52.948;6.012;2024-03-06T01:42:40;686.78;;;326.58;;
52438;SDS011;73188;52.948;6.012;2024-03-06T01:53:06;670.97;;;273.38;;
52438;SDS011;73188;52.948;6.012;2024-03-06T02:03:32;487.60;;;327.95;;
52438;SDS011;73188;52.948;6.012;2024-03-06T02:13:59;770.47;;;360.67;;
52438;SDS011;73188;52.948;6.012;2024-03-06T02:24:24;764.05;;;451.23;;
52438;SDS011;73188;52.948;6.012;2024-03-06T02:34:50;794.28;;;309.42;;
52438;SDS011;73188;52.948;6.012;2024-03-06T02:45:16;746.42;;;314.63;;
52438;SDS011;73188;52.948;6.012;2024-03-06T02:55:42;686.05;;;444.05;;
52438;SDS011;73188;52.948;6.012;2024-03-06T03:06:08;609.15;;;422.55;;
52438;SDS011;73188;52.948;6.012;2024-03-06T03:16:34;565.75;;;457.33;;
52438;SDS011;73188;52.948;6.012;2024-03-06T03:27:00;702.75;;;332.30;;
52438;SDS011;73188;52.948;6.012;2024-03-06T03:37:26;652.33;;;451.73;;
52438;SDS011;73188;52.948;6.012;2024-03-06T03:47:53;564.92;;;373.70;;
52438;SDS011;73188;52.948;6.012;2024-03-06T03:58:19;601.25;;;405.23;;
52438;SDS011;73188;52.948;6.012;2024-03-06T04:08:44;484.13;;;362.58;;
52438;SDS011;73188;52.948;6.012;2024-03-06T04:19:10;566.25;;;342.33;;
52438;SDS011;73188;52.948;6.012;2024-03-06T04:29:36;661.10;;;397.05;;
52438;SDS011;73188;52.948;6.012;2024-03-06T04:40:03;776.55;;;483.55;;
52438;SDS011;73188;52.948;6.012;2024-03-06T04:50:32;297.35;;;186.48;;
52438;SDS011;73188;52.948;6.012;2024-03-06T05:00:58;214.40;;;193.80;;
52438;SDS011;73188;52.948;6.012;2024-03-06T05:11:24;162.00;;;98.47;;
52438;SDS011;73188;52.948;6.012;2024-03-06T05:21:50;131.55;;;117.72;;
52438;SDS011;73188;52.948;6.012;2024-03-06T05:32:16;173.68;;;156.02;;
52438;SDS011;73188;52.948;6.012;2024-03-06T05:42:42;350.88;;;297.70;;
52438;SDS011;73188;52.948;6.012;2024-03-06T05:53:07;470.52;;;321.38;;
52438;SDS011;73188;52.948;6.012;2024-03-06T06:03:33;538.17;;;403.60;;
52438;SDS011;73188;52.948;6.012;2024-03-06T06:13:59;588.10;;;421.95;;
52438;SDS011;73188;52.948;6.012;2024-03-06T06:24:25;526.88;;;290.48;;
52438;SDS011;73188;52.948;6.012;2024-03-06T06:34:51;272.27;;;244.52;;
52438;SDS011;73188;52.948;6.012;2024-03-06T06:45:17;342.30;;;308.63;;
52438;SDS011;73188;52.948;6.012;2024-03-06T06:55:44;414.80;;;374.30;;
52438;SDS011;73188;52.948;6.012;2024-03-06T07:06:10;634.28;;;347.63;;
52438;SDS011;73188;52.948;6.012;2024-03-06T07:16:41;640.13;;;413.38;;
52438;SDS011;73188;52.948;6.012;2024-03-06T07:27:10;558.45;;;320.88;;
52438;SDS011;73188;52.948;6.012;2024-03-06T07:37:36;465.20;;;327.45;;
52438;SDS011;73188;52.948;6.012;2024-03-06T07:48:02;409.77;;;343.92;;
52438;SDS011;73188;52.948;6.012;2024-03-06T07:58:29;806.72;;;358.15;;
52438;SDS011;73188;52.948;6.012;2024-03-06T08:08:54;891.47;;;358.00;;
52438;SDS011;73188;52.948;6.012;2024-03-06T08:19:20;948.58;;;333.13;;
52438;SDS011;73188;52.948;6.012;2024-03-06T08:29:46;908.50;;;369.88;;
52438;SDS011;73188;52.948;6.012;2024-03-06T08:40:13;1074.15;;;393.13;;
52438;SDS011;73188;52.948;6.012;2024-03-06T08:50:45;949.45;;;487.38;;
52438;SDS011;73188;52.948;6.012;2024-03-06T09:01:11;794.88;;;447.90;;
52438;SDS011;73188;52.948;6.012;2024-03-06T09:11:37;657.55;;;396.52;;
52438;SDS011;73188;52.948;6.012;2024-03-06T09:22:03;658.63;;;373.92;;
52438;SDS011;73188;52.948;6.012;2024-03-06T09:32:29;723.92;;;387.00;;
52438;SDS011;73188;52.948;6.012;2024-03-06T09:42:55;853.03;;;492.52;;
52438;SDS011;73188;52.948;6.012;2024-03-06T09:53:21;803.65;;;347.67;;
52438;SDS011;73188;52.948;6.012;2024-03-06T10:03:49;806.42;;;355.17;;
52438;SDS011;73188;52.948;6.012;2024-03-06T10:14:15;878.25;;;398.95;;
52438;SDS011;73188;52.948;6.012;2024-03-06T10:24:41;855.38;;;390.83;;
52438;SDS011;73188;52.948;6.012;2024-03-06T10:35:07;864.45;;;429.05;;
52438;SDS011;73188;52.948;6.012;2024-03-06T10:45:47;903.92;;;502.42;;
52438;SDS011;73188;52.948;6.012;2024-03-06T10:56:15;934.90;;;538.33;;
52438;SDS011;73188;52.948;6.012;2024-03-06T11:06:42;883.70;;;466.40;;
52438;SDS011;73188;52.948;6.012;2024-03-06T11:17:08;742.72;;;474.40;;
52438;SDS011;73188;52.948;6.012;2024-03-06T11:27:57;802.53;;;529.28;;
52438;SDS011;73188;52.948;6.012;2024-03-06T11:38:37;788.13;;;483.15;;
52438;SDS011;73188;52.948;6.012;2024-03-06T11:49:03;729.92;;;506.73;;
52438;SDS011;73188;52.948;6.012;2024-03-06T11:59:31;916.38;;;508.88;;
52438;SDS011;73188;52.948;6.012;2024-03-06T12:09:59;943.97;;;487.70;;
52438;SDS011;73188;52.948;6.012;2024-03-06T12:20:24;1067.85;;;549.47;;
52438;SDS011;73188;52.948;6.012;2024-03-06T12:30:50;1022.40;;;516.92;;
52438;SDS011;73188;52.948;6.012;2024-03-06T12:41:17;1178.25;;;586.28;;
52438;SDS011;73188;52.948;6.012;2024-03-06T12:51:43;1258.65;;;630.78;;
52438;SDS011;73188;52.948;6.012;2024-03-06T13:02:09;1130.10;;;635.35;;
52438;SDS011;73188;52.948;6.012;2024-03-06T13:12:35;815.00;;;637.38;;
52438;SDS011;73188;52.948;6.012;2024-03-06T13:23:04;773.17;;;695.53;;
52438;SDS011;73188;52.948;6.012;2024-03-06T13:33:30;886.85;;;764.45;;
52438;SDS011;73188;52.948;6.012;2024-03-06T13:43:56;1063.18;;;804.00;;
52438;SDS011;73188;52.948;6.012;2024-03-06T13:54:22;1147.90;;;828.20;;
52438;SDS011;73188;52.948;6.012;2024-03-06T14:04:48;1179.97;;;796.80;;
52438;SDS011;73188;52.948;6.012;2024-03-06T14:15:14;1009.72;;;743.83;;
52438;SDS011;73188;52.948;6.012;2024-03-06T14:25:41;1307.93;;;756.47;;
52438;SDS011;73188;52.948;6.012;2024-03-06T14:36:07;1590.35;;;839.28;;
52438;SDS011;73188;52.948;6.012;2024-03-06T14:46:33;1049.30;;;729.72;;
52438;SDS011;73188;52.948;6.012;2024-03-06T14:56:59;1212.55;;;694.88;;
52438;SDS011;73188;52.948;6.012;2024-03-06T15:07:25;1253.65;;;647.40;;
52438;SDS011;73188;52.948;6.012;2024-03-06T15:17:50;1321.78;;;617.95;;
52438;SDS011;73188;52.948;6.012;2024-03-06T15:28:16;1390.95;;;606.22;;
52438;SDS011;73188;52.948;6.012;2024-03-06T15:38:42;1473.97;;;585.03;;
52438;SDS011;73188;52.948;6.012;2024-03-06T15:49:18;1366.80;;;567.70;;
52438;SDS011;73188;52.948;6.012;2024-03-06T15:59:46;1217.07;;;517.63;;
52438;SDS011;73188;52.948;6.012;2024-03-06T16:10:12;719.90;;;506.90;;
52438;SDS011;73188;52.948;6.012;2024-03-06T16:20:38;826.75;;;486.52;;
52438;SDS011;73188;52.948;6.012;2024-03-06T16:31:04;393.83;;;356.65;;
52438;SDS011;73188;52.948;6.012;2024-03-06T16:41:30;205.05;;;186.73;;
52438;SDS011;73188;52.948;6.012;2024-03-06T16:51:56;802.17;;;454.42;;
52438;SDS011;73188;52.948;6.012;2024-03-06T17:02:22;714.97;;;474.17;;
52438;SDS011;73188;52.948;6.012;2024-03-06T17:12:48;618.80;;;464.20;;
52438;SDS011;73188;52.948;6.012;2024-03-06T17:23:14;759.28;;;375.83;;
52438;SDS011;73188;52.948;6.012;2024-03-06T17:33:39;775.35;;;379.50;;
52438;SDS011;73188;52.948;6.012;2024-03-06T17:44:05;752.58;;;351.25;;
52438;SDS011;73188;52.948;6.012;2024-03-06T17:54:31;637.67;;;366.80;;
52438;SDS011;73188;52.948;6.012;2024-03-06T18:04:59;539.97;;;331.55;;
52438;SDS011;73188;52.948;6.012;2024-03-06T18:15:24;760.47;;;332.65;;
52438;SDS011;73188;52.948;6.012;2024-03-06T18:25:50;487.13;;;318.88;;
52438;SDS011;73188;52.948;6.012;2024-03-06T18:36:16;501.02;;;289.10;;
52438;SDS011;73188;52.948;6.012;2024-03-06T18:46:42;673.17;;;308.13;;
52438;SDS011;73188;52.948;6.012;2024-03-06T18:57:09;587.83;;;298.63;;
52438;SDS011;73188;52.948;6.012;2024-03-06T19:07:35;595.40;;;292.50;;
52438;SDS011;73188;52.948;6.012;2024-03-06T19:18:02;587.03;;;309.60;;
52438;SDS011;73188;52.948;6.012;2024-03-06T19:28:29;532.17;;;297.95;;
52438;SDS011;73188;52.948;6.012;2024-03-06T19:38:55;577.40;;;296.52;;
52438;SDS011;73188;52.948;6.012;2024-03-06T19:49:20;667.55;;;309.13;;
52438;SDS011;73188;52.948;6.012;2024-03-06T19:59:46;755.20;;;316.10;;
52438;SDS011;73188;52.948;6.012;2024-03-06T20:10:12;857.28;;;331.02;;
52438;SDS011;73188;52.948;6.012;2024-03-06T20:20:38;888.83;;;325.23;;
52438;SDS011;73188;52.948;6.012;2024-03-06T20:31:07;425.98;;;305.55;;
52438;SDS011;73188;52.948;6.012;2024-03-06T20:41:33;469.30;;;302.67;;
52438;SDS011;73188;52.948;6.012;2024-03-06T20:51:59;515.22;;;301.77;;
52438;SDS011;73188;52.948;6.012;2024-03-06T21:02:25;497.25;;;310.88;;
52438;SDS011;73188;52.948;6.012;2024-03-06T21:12:51;508.33;;;287.70;;
52438;SDS011;73188;52.948;6.012;2024-03-06T21:23:19;606.25;;;287.30;;
52438;SDS011;73188;52.948;6.012;2024-03-06T21:33:45;589.22;;;281.08;;
52438;SDS011;73188;52.948;6.012;2024-03-06T21:44:11;617.35;;;273.27;;
52438;SDS011;73188;52.948;6.012;2024-03-06T21:54:37;763.95;;;299.00;;
52438;SDS011;73188;52.948;6.012;2024-03-06T22:05:09;384.95;;;346.17;;
52438;SDS011;73188;52.948;6.012;2024-03-06T22:15:35;432.02;;;273.40;;
52438;SDS011;73188;52.948;6.012;2024-03-06T22:26:05;432.60;;;273.63;;
52438;SDS011;73188;52.948;6.012;2024-03-06T22:36:31;588.28;;;252.60;;
52438;SDS011;73188;52.948;6.012;2024-03-06T22:46:57;736.03;;;264.88;;
52438;SDS011;73188;52.948;6.012;2024-03-06T22:57:22;671.85;;;251.25;;
52438;SDS011;73188;52.948;6.012;2024-03-06T23:07:48;732.58;;;260.95;;
52438;SDS011;73188;52.948;6.012;2024-03-06T23:18:14;780.40;;;271.20;;
52438;SDS011;73188;52.948;6.012;2024-03-06T23:28:40;653.22;;;247.00;;
52438;SDS011;73188;52.948;6.012;2024-03-06T23:39:06;509.05;;;239.98;;
52438;SDS011;73188;52.948;6.012;2024-03-06T23:49:33;547.55;;;241.07;;
52438;SDS011;73188;52.948;6.012;2024-03-06T23:59:59;557.97;;;245.38;;
